createdAt,value
2023-02-11T00:00:42.433Z,34.70
2023-02-11T00:03:12.057Z,34.00
2023-02-11T00:05:40.285Z,52.00
2023-02-11T00:08:08.403Z,32.90
2023-02-11T00:10:36.751Z,31.90
2023-02-11T00:13:04.919Z,31.80
2023-02-11T00:15:33.145Z,52.50
2023-02-11T00:18:01.287Z,31.90
2023-02-11T00:20:30.907Z,33.30
2023-02-11T00:22:59.041Z,34.40
2023-02-11T00:25:27.166Z,34.50
2023-02-11T00:27:55.439Z,33.30
2023-02-11T00:30:23.901Z,34.50
2023-02-11T00:32:52.053Z,52.80
2023-02-11T00:35:20.339Z,33.50
2023-02-11T00:37:49.970Z,31.80
2023-02-11T00:40:18.304Z,31.50
2023-02-11T00:42:46.517Z,31.60
2023-02-11T00:45:14.989Z,31.20
2023-02-11T00:47:43.230Z,29.70
2023-02-11T00:50:11.497Z,30.80
2023-02-11T00:52:39.786Z,31.10
2023-02-11T00:55:10.027Z,31.30
2023-02-11T00:57:38.328Z,33.10
2023-02-11T01:00:09.328Z,33.90
2023-02-11T01:02:37.493Z,33.20
2023-02-11T01:05:07.053Z,33.30
2023-02-11T01:07:35.295Z,32.10
2023-02-11T01:10:04.336Z,32.30
2023-02-11T01:12:36.241Z,32.40
2023-02-11T01:15:05.792Z,31.90
2023-02-11T01:17:34.411Z,31.70
2023-02-11T01:20:04.955Z,32.80
2023-02-11T01:22:34.411Z,34.10
2023-02-11T01:25:02.503Z,34.90
2023-02-11T01:27:30.634Z,35.30
2023-02-11T01:30:00.110Z,35.50
2023-02-11T01:32:28.330Z,36.30
2023-02-11T01:34:56.713Z,36.80
2023-02-11T01:37:25.194Z,34.90
2023-02-11T01:39:53.928Z,35.50
2023-02-11T01:42:24.205Z,34.30
2023-02-11T01:44:53.980Z,37.00
2023-02-11T01:47:23.511Z,39.50
2023-02-11T01:49:57.819Z,33.40
2023-02-11T01:52:30.385Z,36.30
2023-02-11T01:55:19.425Z,37.90
2023-02-11T01:57:52.361Z,35.40
2023-02-11T02:00:24.298Z,39.30
2023-02-11T02:02:59.503Z,36.30
2023-02-11T02:05:34.204Z,37.70
2023-02-11T02:08:10.977Z,34.00
2023-02-11T02:10:43.460Z,34.00
2023-02-11T02:13:12.029Z,36.50
2023-02-11T02:15:42.742Z,53.10
2023-02-11T02:18:25.689Z,38.60
2023-02-11T02:21:25.574Z,36.80
2023-02-11T02:24:23.052Z,37.10
2023-02-11T02:27:22.255Z,32.50
2023-02-11T02:30:33.105Z,30.70
2023-02-11T02:33:24.848Z,30.90
2023-02-11T02:36:02.758Z,38.10
2023-02-11T02:38:35.441Z,40.10
2023-02-11T02:41:07.348Z,32.90
2023-02-11T02:43:38.042Z,35.30
2023-02-11T02:46:14.875Z,37.30
2023-02-11T02:48:45.011Z,37.50
2023-02-11T02:51:40.642Z,40.10
2023-02-11T02:54:41.196Z,30.50
2023-02-11T02:57:20.722Z,37.50
2023-02-11T03:00:03.619Z,41.90
2023-02-11T03:02:36.122Z,36.90
2023-02-11T03:05:13.001Z,35.90
2023-02-11T03:07:46.059Z,36.80
2023-02-11T03:10:18.619Z,34.90
2023-02-11T03:12:49.591Z,34.70
2023-02-11T03:15:19.407Z,35.10
2023-02-11T03:17:50.406Z,34.20
2023-02-11T03:20:23.163Z,38.00
2023-02-11T03:22:57.019Z,39.90
2023-02-11T03:25:31.047Z,34.40
2023-02-11T03:28:04.685Z,32.20
2023-02-11T03:30:39.760Z,33.60
2023-02-11T03:33:13.623Z,34.30
2023-02-11T03:35:51.234Z,52.60
2023-02-11T03:38:23.581Z,34.10
2023-02-11T03:40:52.207Z,34.50
2023-02-11T03:43:23.802Z,34.90
2023-02-11T03:45:54.484Z,55.50
2023-02-11T03:48:27.125Z,34.20
2023-02-11T03:50:58.609Z,35.30
2023-02-11T03:53:26.836Z,39.20
2023-02-11T03:55:57.683Z,35.30
2023-02-11T03:58:26.344Z,35.00
2023-02-11T04:00:54.524Z,38.10
2023-02-11T04:03:22.958Z,36.50
2023-02-11T04:05:51.323Z,62.60
2023-02-11T04:08:21.136Z,36.00
2023-02-11T04:10:49.297Z,36.50
2023-02-11T04:13:17.475Z,35.60
2023-02-11T04:15:48.479Z,58.30
2023-02-11T04:18:17.144Z,37.70
2023-02-11T04:20:45.415Z,34.50
2023-02-11T04:23:14.073Z,35.40
2023-02-11T04:25:43.837Z,54.30
2023-02-11T04:28:12.038Z,34.20
2023-02-11T04:30:40.291Z,33.80
2023-02-11T04:33:08.511Z,38.10
2023-02-11T04:35:36.724Z,57.50
2023-02-11T04:38:04.959Z,33.10
2023-02-11T04:40:33.073Z,32.20
2023-02-11T04:43:02.661Z,36.50
2023-02-11T04:45:30.817Z,37.00
2023-02-11T04:47:58.993Z,39.50
2023-02-11T04:50:27.148Z,38.20
2023-02-11T04:52:55.298Z,40.10
2023-02-11T04:55:23.508Z,39.70
2023-02-11T04:57:51.760Z,38.60
2023-02-11T05:00:21.657Z,33.90
2023-02-11T05:02:49.813Z,35.90
2023-02-11T05:05:18.046Z,41.50
2023-02-11T05:07:46.212Z,26.80
2023-02-11T05:10:14.396Z,30.40
2023-02-11T05:12:42.607Z,25.70
2023-02-11T05:15:11.058Z,26.20
2023-02-11T05:17:40.625Z,25.40
2023-02-11T05:20:09.860Z,25.80
2023-02-11T05:22:37.998Z,26.00
2023-02-11T05:25:06.715Z,26.10
2023-02-11T05:27:35.085Z,25.50
2023-02-11T05:30:03.334Z,25.90
2023-02-11T05:32:31.562Z,26.10
2023-02-11T05:35:01.154Z,25.70
2023-02-11T05:37:29.411Z,25.30
2023-02-11T05:39:57.616Z,25.70
2023-02-11T05:42:25.762Z,26.10
2023-02-11T05:44:54.032Z,25.20
2023-02-11T05:47:22.259Z,24.90
2023-02-11T05:49:50.471Z,25.90
2023-02-11T05:52:19.945Z,26.10
2023-02-11T05:54:48.075Z,26.20
2023-02-11T05:57:16.437Z,26.70
2023-02-11T05:59:44.659Z,27.70
2023-02-11T06:02:12.851Z,28.60
2023-02-11T06:04:41.503Z,28.80
2023-02-11T06:07:09.666Z,27.30
2023-02-11T06:09:39.680Z,28.20
2023-02-11T06:12:08.222Z,28.50
2023-02-11T06:14:37.896Z,28.30
2023-02-11T06:17:06.215Z,27.90
2023-02-11T06:19:34.368Z,28.10
2023-02-11T06:22:02.511Z,28.50
2023-02-11T06:24:54.681Z,28.60
2023-02-11T06:27:20.131Z,28.30
2023-02-11T06:29:49.647Z,28.80
2023-02-11T06:32:39.448Z,28.60
2023-02-11T06:35:06.219Z,28.90
2023-02-11T06:37:35.589Z,28.10
2023-02-11T06:40:03.833Z,28.70
2023-02-11T06:42:34.546Z,28.70
2023-02-11T06:45:02.797Z,28.40
2023-02-11T06:47:31.012Z,27.90
2023-02-11T06:49:59.308Z,28.40
2023-02-11T06:52:27.554Z,27.70
2023-02-11T06:54:55.720Z,27.80
2023-02-11T06:57:23.926Z,27.90
2023-02-11T06:59:53.687Z,28.10
2023-02-11T07:02:21.831Z,28.00
2023-02-11T07:04:50.164Z,28.10
2023-02-11T07:07:18.363Z,26.80
2023-02-11T07:09:46.571Z,26.90
2023-02-11T07:12:14.825Z,27.10
2023-02-11T07:14:43.153Z,26.80
2023-02-11T07:17:12.712Z,26.50
2023-02-11T07:19:41.004Z,27.20
2023-02-11T07:22:09.190Z,27.10
2023-02-11T07:24:37.318Z,26.70
2023-02-11T07:27:05.625Z,26.50
2023-02-11T07:29:34.195Z,26.90
2023-02-11T07:32:02.381Z,26.30
2023-02-11T07:34:31.998Z,26.10
2023-02-11T07:37:00.260Z,26.10
2023-02-11T07:39:29.490Z,26.50
2023-02-11T07:41:58.405Z,26.40
2023-02-11T07:44:26.729Z,26.60
2023-02-11T07:46:55.006Z,25.70
2023-02-11T07:49:23.148Z,26.20
2023-02-11T07:51:53.154Z,26.10
2023-02-11T07:54:21.465Z,26.40
2023-02-11T07:56:49.584Z,26.20
2023-02-11T07:59:17.864Z,26.30
2023-02-11T08:01:45.990Z,25.90
2023-02-11T08:04:14.169Z,26.20
2023-02-11T08:06:43.792Z,25.00
2023-02-11T08:09:17.502Z,24.80
2023-02-11T08:11:45.892Z,24.10
2023-02-11T08:14:14.155Z,22.80
2023-02-11T08:16:42.848Z,22.10
2023-02-11T08:19:14.281Z,22.60
2023-02-11T08:21:42.829Z,22.90
2023-02-11T08:24:11.556Z,21.80
2023-02-11T08:26:41.270Z,22.00
2023-02-11T08:29:11.828Z,22.10
2023-02-11T08:31:42.823Z,22.30
2023-02-11T08:34:11.725Z,21.60
2023-02-11T08:36:43.441Z,21.20
2023-02-11T08:39:19.650Z,21.70
2023-02-11T08:41:51.931Z,21.30
2023-02-11T08:44:20.877Z,20.30
2023-02-11T08:46:50.007Z,20.50
2023-02-11T08:49:18.299Z,20.50
2023-02-11T08:51:47.604Z,20.00
2023-02-11T08:54:16.415Z,20.40
2023-02-11T08:56:45.228Z,19.50
2023-02-11T08:59:17.826Z,20.00
2023-02-11T09:01:47.311Z,20.40
2023-02-11T09:04:15.906Z,19.90
2023-02-11T09:06:44.624Z,18.90
2023-02-11T09:09:14.586Z,19.50
2023-02-11T09:11:44.439Z,19.10
2023-02-11T09:14:19.387Z,19.60
2023-02-11T09:16:47.856Z,19.30
2023-02-11T09:19:16.302Z,20.00
2023-02-11T09:21:45.123Z,18.80
2023-02-11T09:24:13.595Z,19.30
2023-02-11T09:26:43.030Z,18.20
2023-02-11T09:29:11.133Z,18.90
2023-02-11T09:31:40.707Z,19.40
2023-02-11T09:34:09.542Z,18.80
2023-02-11T09:36:40.063Z,17.70
2023-02-11T09:39:10.429Z,18.40
2023-02-11T09:42:08.740Z,18.70
2023-02-11T09:44:38.642Z,18.10
2023-02-11T09:47:21.559Z,17.80
2023-02-11T09:49:52.259Z,17.50
2023-02-11T09:52:31.026Z,17.50
2023-02-11T09:55:01.397Z,17.20
2023-02-11T09:57:34.334Z,17.20
2023-02-11T10:00:04.181Z,17.90
2023-02-11T10:02:45.146Z,17.30
2023-02-11T10:05:22.749Z,17.40
2023-02-11T10:07:58.708Z,17.00
2023-02-11T10:10:44.350Z,16.80
2023-02-11T10:13:42.404Z,16.70
2023-02-11T10:16:21.734Z,16.70
2023-02-11T10:19:17.774Z,16.90
2023-02-11T10:21:54.760Z,17.00
2023-02-11T10:24:23.290Z,17.00
2023-02-11T10:26:53.466Z,16.10
2023-02-11T10:29:35.974Z,16.60
2023-02-11T10:32:17.375Z,16.60
2023-02-11T10:34:47.048Z,16.40
2023-02-11T10:37:15.718Z,16.10
2023-02-11T10:39:44.008Z,16.60
2023-02-11T10:42:14.762Z,16.50
2023-02-11T10:44:58.112Z,16.80
2023-02-11T10:47:29.865Z,16.20
2023-02-11T10:50:03.586Z,16.40
2023-02-11T10:52:32.853Z,16.60
2023-02-11T10:55:04.073Z,16.30
2023-02-11T10:57:36.140Z,16.00
2023-02-11T11:00:09.983Z,16.20
2023-02-11T11:02:44.141Z,16.40
2023-02-11T11:05:20.850Z,16.10
2023-02-11T11:07:57.158Z,15.10
2023-02-11T11:10:43.149Z,15.70
2023-02-11T11:13:32.935Z,15.20
2023-02-11T11:16:28.744Z,14.90
2023-02-11T11:19:21.617Z,15.20
2023-02-11T11:21:52.437Z,15.10
2023-02-11T11:24:26.709Z,17.30
2023-02-11T11:26:57.714Z,16.40
2023-02-11T11:29:33.877Z,16.60
2023-02-11T11:32:05.498Z,16.60
2023-02-11T11:34:37.184Z,16.90
2023-02-11T11:37:14.502Z,16.10
2023-02-11T11:39:42.872Z,34.40
2023-02-11T11:42:27.643Z,15.90
2023-02-11T11:45:01.400Z,16.20
2023-02-11T11:47:39.197Z,15.60
2023-02-11T11:50:31.849Z,16.30
2023-02-11T11:53:08.245Z,15.70
2023-02-11T11:55:42.236Z,33.10
2023-02-11T11:58:16.136Z,15.80
2023-02-11T12:00:53.347Z,15.90
2023-02-11T12:03:54.958Z,15.80
2023-02-11T12:06:32.148Z,15.90
2023-02-11T12:09:14.422Z,15.90
2023-02-11T12:12:07.658Z,15.90
2023-02-11T12:14:44.984Z,15.50
2023-02-11T12:17:23.195Z,15.30
2023-02-11T12:20:00.805Z,15.50
2023-02-11T12:22:42.908Z,15.30
2023-02-11T12:28:27.494Z,11.30
2023-02-11T12:31:11.421Z,15.00
2023-02-11T12:34:18.807Z,15.10
2023-02-11T12:36:57.630Z,14.50
2023-02-11T12:39:38.319Z,14.90
2023-02-11T12:42:42.745Z,17.10
2023-02-11T12:45:22.985Z,12.50
2023-02-11T12:48:01.988Z,12.70
2023-02-11T12:50:40.164Z,12.70
2023-02-11T12:53:25.577Z,12.40
2023-02-11T13:10:43.312Z,10.50
2023-02-11T13:16:55.161Z,11.00
2023-02-11T13:23:37.963Z,9.10
2023-02-11T13:33:59.397Z,9.00
2023-02-11T13:39:34.657Z,11.30
2023-02-11T13:42:12.462Z,11.50
2023-02-11T13:44:48.456Z,11.10
2023-02-11T13:47:33.598Z,10.70
2023-02-11T13:50:23.703Z,10.70
2023-02-11T13:53:24.360Z,10.60
2023-02-11T14:07:04.119Z,7.10
2023-02-11T14:13:37.053Z,10.20
2023-02-11T14:23:16.171Z,10.70
2023-02-11T14:30:12.001Z,8.50
2023-02-11T14:37:06.196Z,9.70
2023-02-11T14:40:26.247Z,13.00
2023-02-11T14:43:32.429Z,10.50
2023-02-11T14:49:58.897Z,2.70
2023-02-11T14:52:51.888Z,2.30
2023-02-11T14:56:02.335Z,1.40
2023-02-11T15:01:51.340Z,1.20
2023-02-11T15:10:19.734Z,1.00
2023-02-11T15:12:50.987Z,1.00
2023-02-11T15:15:19.360Z,1.00
2023-02-11T15:17:49.286Z,1.00
2023-02-11T15:20:23.776Z,1.80
2023-02-11T15:22:56.038Z,1.70
2023-02-11T15:25:24.165Z,2.20
2023-02-11T15:27:56.639Z,2.40
2023-02-11T15:30:31.726Z,2.60
2023-02-11T15:33:03.312Z,3.30
2023-02-11T15:35:35.073Z,3.90
2023-02-11T15:38:03.473Z,4.90
2023-02-11T15:40:33.656Z,5.90
2023-02-11T15:43:03.716Z,7.30
2023-02-11T15:45:34.241Z,7.90
2023-02-11T15:48:10.630Z,8.50
2023-02-11T15:50:40.911Z,9.20
2023-02-11T15:53:26.439Z,9.60
2023-02-11T15:55:59.442Z,10.20
2023-02-11T15:58:27.574Z,10.20
2023-02-11T16:00:59.693Z,10.90
2023-02-11T16:03:32.833Z,10.90
2023-02-11T16:06:19.862Z,11.70
2023-02-11T16:09:02.768Z,11.40
2023-02-11T16:11:33.157Z,12.40
2023-02-11T16:14:04.593Z,12.40
2023-02-11T16:16:35.694Z,13.30
2023-02-11T16:19:06.664Z,14.70
2023-02-11T16:21:38.934Z,16.10
2023-02-11T16:24:08.909Z,17.30
2023-02-11T16:26:43.133Z,18.10
2023-02-11T16:29:14.701Z,18.50
2023-02-11T16:31:45.192Z,19.40
2023-02-11T16:34:17.850Z,19.80
2023-02-11T16:36:46.367Z,19.90
2023-02-11T16:39:14.501Z,19.70
2023-02-11T16:41:42.606Z,20.20
2023-02-11T16:44:10.732Z,20.50
2023-02-11T16:46:39.186Z,21.20
2023-02-11T16:49:12.416Z,24.20
2023-02-11T16:51:42.675Z,24.60
2023-02-11T16:54:16.139Z,25.60
2023-02-11T16:56:44.950Z,25.50
2023-02-11T16:59:13.217Z,25.60
2023-02-11T17:01:42.977Z,26.20
2023-02-11T17:04:17.387Z,26.40
2023-02-11T17:06:48.122Z,26.20
2023-02-11T17:09:20.939Z,27.90
2023-02-11T17:14:17.990Z,30.40
2023-02-11T17:16:47.138Z,32.70
2023-02-11T17:19:17.121Z,32.00
2023-02-11T17:21:48.458Z,32.60
2023-02-11T17:24:16.793Z,32.90
2023-02-11T17:26:45.884Z,33.20
2023-02-11T17:31:43.251Z,34.20
2023-02-11T17:36:41.376Z,35.00
2023-02-11T17:39:11.236Z,34.10
2023-02-11T17:41:40.539Z,34.40
2023-02-11T17:44:09.732Z,33.60
2023-02-11T17:46:37.889Z,32.30
2023-02-11T17:49:06.031Z,31.80
2023-02-11T17:51:36.367Z,32.50
2023-02-11T17:54:06.901Z,32.20
2023-02-11T17:56:37.743Z,32.20
2023-02-11T17:59:07.338Z,30.00
2023-02-11T18:01:37.095Z,29.50
2023-02-11T18:04:05.768Z,29.90
2023-02-11T18:06:34.825Z,29.50
2023-02-11T18:09:04.416Z,30.40
2023-02-11T18:11:34.659Z,30.90
2023-02-11T18:14:07.721Z,32.00
2023-02-11T18:16:39.048Z,31.90
2023-02-11T18:19:07.828Z,32.00
2023-02-11T18:21:36.252Z,32.00
2023-02-11T18:24:07.002Z,31.10
2023-02-11T18:26:35.860Z,30.70
2023-02-11T18:29:07.045Z,30.10
2023-02-11T18:31:36.395Z,30.50
2023-02-11T18:34:07.475Z,29.50
2023-02-11T18:36:35.946Z,29.90
2023-02-11T18:39:04.908Z,29.60
2023-02-11T18:41:33.230Z,30.20
2023-02-11T18:44:03.044Z,31.70
2023-02-11T18:46:32.794Z,32.50
2023-02-11T18:49:01.074Z,32.30
2023-02-11T18:51:31.775Z,33.20
2023-02-11T18:54:01.195Z,32.60
2023-02-11T18:56:29.354Z,31.30
2023-02-11T18:59:01.218Z,30.20
2023-02-11T19:01:31.151Z,30.20
2023-02-11T19:04:03.584Z,29.90
2023-02-11T19:06:33.730Z,32.60
2023-02-11T19:09:04.511Z,29.60
2023-02-11T19:11:50.290Z,30.10
2023-02-11T19:14:24.033Z,29.80
2023-02-11T19:16:53.869Z,29.70
2023-02-11T19:19:27.891Z,29.30
2023-02-11T19:21:56.962Z,30.00
2023-02-11T19:24:25.853Z,30.60
2023-02-11T19:26:56.804Z,29.90
2023-02-11T19:29:25.399Z,30.00
2023-02-11T19:31:53.691Z,29.80
2023-02-11T19:34:23.786Z,31.20
2023-02-11T19:36:52.810Z,35.10
2023-02-11T19:39:21.047Z,39.80
2023-02-11T19:41:49.093Z,33.50
2023-02-11T19:44:17.292Z,33.40
2023-02-11T19:46:46.098Z,32.50
2023-02-11T19:49:16.616Z,32.00
2023-02-11T19:51:46.037Z,32.00
2023-02-11T19:54:14.118Z,32.10
2023-02-11T19:56:42.229Z,30.70
2023-02-11T19:59:10.328Z,31.20
2023-02-11T20:01:38.524Z,32.30
2023-02-11T20:04:07.101Z,38.40
2023-02-11T20:09:07.890Z,32.10
2023-02-11T20:11:36.868Z,32.60
2023-02-11T20:14:06.754Z,32.00
2023-02-11T20:16:47.400Z,31.60
2023-02-11T20:19:17.832Z,30.90
2023-02-11T20:21:47.972Z,31.80
2023-02-11T20:24:18.442Z,32.10
2023-02-11T20:26:48.534Z,32.10
2023-02-11T20:29:17.194Z,31.60
2023-02-11T20:31:45.662Z,47.30
2023-02-11T20:34:13.893Z,34.20
2023-02-11T20:36:42.072Z,35.40
2023-02-11T20:39:17.151Z,36.70
2023-02-11T20:41:46.994Z,38.00
2023-02-11T20:44:15.628Z,38.20
2023-02-11T20:46:45.975Z,38.20
2023-02-11T20:49:16.066Z,37.00
2023-02-11T20:51:45.016Z,36.20
2023-02-11T20:54:14.674Z,35.40
2023-02-11T20:56:43.438Z,36.00
2023-02-11T20:59:15.042Z,35.40
2023-02-11T21:01:45.803Z,35.10
2023-02-11T21:04:16.102Z,36.00
2023-02-11T21:06:47.212Z,35.80
2023-02-11T21:09:17.392Z,37.20
2023-02-11T21:11:45.483Z,38.80
2023-02-11T21:14:15.090Z,39.00
2023-02-11T21:16:43.374Z,40.30
2023-02-11T21:19:11.571Z,39.40
2023-02-11T21:21:40.949Z,40.10
2023-02-11T21:24:10.819Z,39.60
2023-02-11T21:26:39.495Z,39.30
2023-02-11T21:29:09.287Z,39.10
2023-02-11T21:31:39.056Z,40.40
2023-02-11T21:34:07.825Z,39.80
2023-02-11T21:36:35.947Z,40.00
2023-02-11T21:39:04.272Z,51.40
2023-02-11T21:41:32.513Z,40.70
2023-02-11T21:44:00.583Z,41.40
2023-02-11T21:46:28.859Z,40.50
2023-02-11T21:49:00.410Z,39.80
2023-02-11T21:51:28.776Z,39.10
2023-02-11T21:53:58.168Z,38.90
2023-02-11T21:56:28.146Z,39.30
2023-02-11T21:58:57.884Z,38.40
2023-02-11T22:01:27.634Z,38.50
2023-02-11T22:03:55.707Z,38.00
2023-02-11T22:06:27.546Z,37.80
2023-02-11T22:08:56.511Z,36.00
2023-02-11T22:11:25.310Z,36.30
2023-02-11T22:13:56.292Z,37.80
2023-02-11T22:16:24.608Z,39.80
2023-02-11T22:18:53.095Z,38.20
2023-02-11T22:21:23.542Z,37.90
2023-02-11T22:23:53.100Z,37.80
2023-02-11T22:26:23.056Z,38.10
2023-02-11T22:28:51.696Z,37.80
2023-02-11T22:31:21.950Z,37.70
2023-02-11T22:33:50.791Z,38.30
2023-02-11T22:36:22.132Z,39.20
2023-02-11T22:38:52.112Z,38.90
2023-02-11T22:41:20.979Z,39.80
2023-02-11T22:43:49.365Z,40.20
2023-02-11T22:46:19.075Z,40.80
2023-02-11T22:48:47.534Z,39.50
2023-02-11T22:51:17.756Z,39.90
2023-02-11T22:53:46.002Z,39.70
2023-02-11T22:56:16.007Z,39.10
2023-02-11T22:58:44.501Z,37.10
2023-02-11T23:01:12.844Z,37.80
2023-02-11T23:03:41.398Z,37.40
2023-02-11T23:06:10.068Z,37.60
2023-02-11T23:08:40.446Z,38.10
2023-02-11T23:11:10.096Z,39.30
2023-02-11T23:13:41.612Z,40.00
2023-02-11T23:16:11.749Z,39.90
2023-02-11T23:18:42.199Z,38.80
2023-02-11T23:21:12.776Z,39.40
2023-02-11T23:23:41.155Z,39.00
2023-02-11T23:26:12.242Z,39.20
2023-02-11T23:28:42.053Z,39.20
2023-02-11T23:31:19.113Z,39.70
2023-02-11T23:33:48.295Z,40.00
2023-02-11T23:36:17.399Z,39.40
2023-02-11T23:38:45.675Z,37.70
2023-02-11T23:41:15.107Z,38.30
2023-02-11T23:43:45.224Z,38.80
2023-02-11T23:46:13.466Z,38.70
2023-02-11T23:48:41.646Z,37.20
2023-02-11T23:51:10.660Z,37.30
2023-02-11T23:53:40.727Z,37.90
2023-02-11T23:56:10.726Z,40.00
2023-02-11T23:58:38.962Z,38.00
